Time;durP1;ratioP1;P1;durP2;ratioP2;P2;SDS_P1;SDS_P2;PMS_P1;PMS_P2;Temp;Humidity;BMP_temperature;BMP_pressure;BME280_temperature;BME280_humidity;BME280_pressure;Samples;Min_cycle;Max_cycle;Signal;HPM_P1;HPM_P2
2022/09/02 00:02:21;;;;;;;;;;;;;;;14.31;100.00;101558.22;6539271;22;19973;-76
2022/09/02 00:04:52;;;;;;;;;;;;;;;14.25;100.00;101556.97;6538804;22;19938;-75
2022/09/02 00:07:23;;;;;;;;;;;;;;;14.22;100.00;101567.16;6538525;22;19987;-76
2022/09/02 00:09:54;;;;;;;;;;;;;;;14.18;100.00;101558.56;6539917;22;19903;-76
2022/09/02 00:12:26;;;;;;;;;;;;;;;14.11;100.00;101547.59;6540301;22;19995;-76
2022/09/02 00:14:57;;;;;;;;;;;;;;;14.08;100.00;101555.09;6538377;22;19907;-76
2022/09/02 00:17:28;;;;;;;;;;;;;;;14.03;100.00;101555.53;6538158;22;19904;-76
2022/09/02 00:20:00;;;;;;;;;;;;;;;13.98;100.00;101552.44;6539500;22;19962;-76
2022/09/02 00:22:31;;;;;;;;;;;;;;;13.92;100.00;101545.84;6537912;22;19927;-76
2022/09/02 00:25:02;;;;;;;;;;;;;;;13.90;100.00;101553.19;6537368;22;19912;-76
2022/09/02 00:27:33;;;;;;;;;;;;;;;13.88;100.00;101549.78;6537056;22;19911;-76
2022/09/02 00:30:05;;;;;;;;;;;;;;;13.86;100.00;101548.25;6537881;22;20303;-76
2022/09/02 00:32:36;;;;;;;;;;;;;;;13.82;100.00;101547.72;6510868;22;19919;-76
2022/09/02 00:35:08;;;;;;;;;;;;;;;13.78;100.00;101547.16;6537685;22;19908;-76
2022/09/02 00:37:40;;;;;;;;;;;;;;;13.76;100.00;101549.16;6537227;22;20336;-76
2022/09/02 00:40:12;;;;;;;;;;;;;;;13.75;100.00;101543.94;6510225;22;20378;-76
2022/09/02 00:42:44;;;;;;;;;;;;;;;13.75;100.00;101546.63;6510901;22;19907;-76
2022/09/02 00:45:17;;;;;;;;;;;;;;;13.76;100.00;101545.59;6537515;22;19953;-76
2022/09/02 00:47:50;;;;;;;;;;;;;;;13.72;100.00;101541.53;6510502;22;19914;-76
2022/09/02 00:50:23;;;;;;;;;;;;;;;13.67;100.00;101546.47;6537966;22;20585;-76
2022/09/02 00:52:57;;;;;;;;;;;;;;;13.60;100.00;101536.38;6537236;22;19981;-76
2022/09/02 00:55:30;;;;;;;;;;;;;;;13.58;100.00;101540.16;6537027;22;19947;-76
2022/09/02 00:58:04;;;;;;;;;;;;;;;13.55;100.00;101545.81;6537089;22;20325;-76
2022/09/02 01:00:38;;;;;;;;;;;;;;;13.53;100.00;101537.06;6537477;22;19908;-76
2022/09/02 01:03:11;;;;;;;;;;;;;;;13.50;100.00;101537.34;6538560;22;20314;-77
2022/09/02 01:05:44;;;;;;;;;;;;;;;13.49;100.00;101533.84;6536640;22;19908;-77
2022/09/02 01:08:18;;;;;;;;;;;;;;;13.47;100.00;101535.81;6538041;22;19975;-77
2022/09/02 01:10:51;;;;;;;;;;;;;;;13.46;100.00;101530.59;6536555;22;19957;-77
2022/09/02 01:13:24;;;;;;;;;;;;;;;13.43;100.00;101527.22;6536387;22;19911;-76
2022/09/02 01:16:09;;;;;;;;;;;;;;;13.41;100.00;101531.03;6537421;22;19903;-76
2022/09/02 01:18:44;;;;;;;;;;;;;;;13.37;100.00;101525.09;6538247;22;19931;-77
2022/09/02 01:21:15;;;;;;;;;;;;;;;13.34;100.00;101525.41;6537322;22;20513;-76
2022/09/02 01:23:46;;;;;;;;;;;;;;;13.32;100.00;101530.06;6538226;22;19927;-76
2022/09/02 01:26:18;;;;;;;;;;;;;;;13.29;100.00;101535.69;6536931;22;19904;-76
2022/09/02 01:28:49;;;;;;;;;;;;;;;13.26;100.00;101527.94;6538100;22;19907;-76
2022/09/02 01:31:21;;;;;;;;;;;;;;;13.26;100.00;101529.78;6536866;22;19907;-76
2022/09/02 01:33:53;;;;;;;;;;;;;;;13.23;100.00;101523.69;6537970;22;19918;-76
2022/09/02 01:36:25;;;;;;;;;;;;;;;13.21;100.00;101528.34;6536784;22;19914;-76
2022/09/02 01:38:56;;;;;;;;;;;;;;;13.20;100.00;101531.16;6536683;22;20334;-76
2022/09/02 01:41:27;;;;;;;;;;;;;;;13.19;100.00;101521.44;6537882;22;19904;-76
2022/09/02 01:43:59;;;;;;;;;;;;;;;13.15;100.00;101520.91;6537870;22;20021;-77
2022/09/02 01:46:31;;;;;;;;;;;;;;;13.17;100.00;101523.44;6509773;22;20344;-77
2022/09/02 01:49:03;;;;;;;;;;;;;;;13.17;100.00;101513.56;6537966;22;19911;-76
2022/09/02 01:51:34;;;;;;;;;;;;;;;13.17;100.00;101518.91;6537728;22;20069;-76
2022/09/02 01:54:05;;;;;;;;;;;;;;;13.14;100.00;101519.19;6536680;22;20328;-76
2022/09/02 01:56:37;;;;;;;;;;;;;;;13.13;100.00;101520.19;6537417;22;19942;-76
2022/09/02 01:59:10;;;;;;;;;;;;;;;13.10;100.00;101516.97;6537740;22;20331;-75
2022/09/02 02:01:41;;;;;;;;;;;;;;;13.08;100.00;101519.78;6536850;22;19908;-75
2022/09/02 02:04:13;;;;;;;;;;;;;;;13.07;100.00;101514.56;6537009;22;20334;-76
2022/09/02 02:06:47;;;;;;;;;;;;;;;13.07;100.00;101519.91;6537169;22;19907;-76
2022/09/02 02:09:18;;;;;;;;;;;;;;;13.05;100.00;101517.38;6537176;22;19904;-76
2022/09/02 02:11:49;;;;;;;;;;;;;;;13.06;100.00;101521.75;6510611;22;19907;-76
2022/09/02 02:14:21;;;;;;;;;;;;;;;13.06;100.00;101513.72;6537059;22;19916;-76
2022/09/02 02:16:52;;;;;;;;;;;;;;;13.06;100.00;101513.72;6536126;22;20300;-76
2022/09/02 02:19:24;;;;;;;;;;;;;;;13.05;100.00;101512.03;6537461;22;20263;-76
2022/09/02 02:21:55;;;;;;;;;;;;;;;13.04;100.00;101516.53;6536378;22;20002;-76
2022/09/02 02:24:26;;;;;;;;;;;;;;;13.04;100.00;101513.88;6536662;22;20717;-76
2022/09/02 02:26:58;;;;;;;;;;;;;;;13.07;100.00;101510.03;6535723;22;19907;-76
2022/09/02 02:29:29;;;;;;;;;;;;;;;13.08;100.00;101511.75;6536931;22;20338;-76
2022/09/02 02:32:00;;;;;;;;;;;;;;;13.09;100.00;101510.75;6536738;22;19913;-76
2022/09/02 02:34:31;;;;;;;;;;;;;;;13.10;100.00;101509.75;6536156;22;19965;-76
2022/09/02 02:37:03;;;;;;;;;;;;;;;13.11;100.00;101513.28;6536051;22;19915;-76
2022/09/02 02:39:34;;;;;;;;;;;;;;;13.11;100.00;101508.75;6509407;22;19918;-77
2022/09/02 02:42:06;;;;;;;;;;;;;;;13.12;100.00;101507.78;6537331;22;19926;-77
2022/09/02 02:44:38;;;;;;;;;;;;;;;13.13;100.00;101509.50;6509702;22;19914;-76
2022/09/02 02:47:09;;;;;;;;;;;;;;;13.14;100.00;101504.97;6536788;22;20185;-76
2022/09/02 02:49:41;;;;;;;;;;;;;;;13.17;100.00;101502.00;6536278;22;20365;-76
2022/09/02 02:52:12;;;;;;;;;;;;;;;13.17;100.00;101496.66;6535941;22;19922;-76
2022/09/02 02:54:44;;;;;;;;;;;;;;;13.15;100.00;101491.44;6536104;22;19904;-76
2022/09/02 02:57:15;;;;;;;;;;;;;;;13.16;100.00;101494.94;6536623;22;20753;-76
2022/09/02 02:59:46;;;;;;;;;;;;;;;13.17;100.00;101505.53;6536168;22;19907;-76
2022/09/02 03:02:17;;;;;;;;;;;;;;;13.17;100.00;101497.50;6536380;22;19912;-76
2022/09/02 03:04:49;;;;;;;;;;;;;;;13.18;100.00;101491.16;6535453;22;20254;-76
2022/09/02 03:07:20;;;;;;;;;;;;;;;13.17;100.00;101496.66;6536754;22;19923;-78
2022/09/02 03:09:52;;;;;;;;;;;;;;;13.15;100.00;101494.13;6536112;22;19923;-76
2022/09/02 03:12:24;;;;;;;;;;;;;;;13.12;100.00;101498.91;6536957;22;19918;-76
2022/09/02 03:14:55;;;;;;;;;;;;;;;13.10;100.00;101492.84;6535836;22;20341;-76
2022/09/02 03:17:26;;;;;;;;;;;;;;;13.06;100.00;101492.31;6510286;22;19907;-76
2022/09/02 03:19:58;;;;;;;;;;;;;;;13.01;100.00;101495.41;6536968;22;19958;-76
2022/09/02 03:22:29;;;;;;;;;;;;;;;12.99;100.00;101493.84;6509844;22;19914;-76
2022/09/02 03:25:00;;;;;;;;;;;;;;;12.95;100.00;101493.28;6536372;22;19904;-76
2022/09/02 03:27:33;;;;;;;;;;;;;;;12.92;100.00;101493.59;6537038;22;20012;-76
2022/09/02 03:30:05;;;;;;;;;;;;;;;12.85;100.00;101487.09;6536839;22;19969;-76
2022/09/02 03:32:37;;;;;;;;;;;;;;;12.79;100.00;101491.16;6536635;22;19911;-76
2022/09/02 03:35:11;;;;;;;;;;;;;;;12.76;100.00;101487.94;6536728;22;19908;-76
2022/09/02 03:37:42;;;;;;;;;;;;;;;12.70;100.00;101484.00;6536879;22;19907;-76
2022/09/02 03:40:15;;;;;;;;;;;;;;;12.66;100.00;101488.78;6537839;22;20324;-76
2022/09/02 03:42:46;;;;;;;;;;;;;;;12.64;100.00;101484.53;6510254;22;20283;-76
2022/09/02 03:45:18;;;;;;;;;;;;;;;12.62;100.00;101482.03;6537731;22;19962;-76
2022/09/02 03:47:50;;;;;;;;;;;;;;;12.61;100.00;101485.69;6538139;22;20366;-76
2022/09/02 03:50:32;;;;;;;;;;;;;;;12.62;100.00;101479.34;6511136;22;19942;-76
2022/09/02 03:53:04;;;;;;;;;;;;;;;12.60;100.00;101475.09;6536914;22;19917;-76
2022/09/02 03:55:36;;;;;;;;;;;;;;;12.55;100.00;101474.69;6510783;22;19907;-76
2022/09/02 03:58:07;;;;;;;;;;;;;;;12.52;100.00;101466.94;6537563;22;19911;-75
2022/09/02 04:00:39;;;;;;;;;;;;;;;12.49;100.00;101474.25;6511727;22;20289;-75
2022/09/02 04:03:10;;;;;;;;;;;;;;;12.45;100.00;101472.84;6537530;22;19903;-75
2022/09/02 04:05:45;;;;;;;;;;;;;;;12.41;100.00;101470.59;6537630;22;19907;-76
2022/09/02 04:08:18;;;;;;;;;;;;;;;12.38;100.00;101477.06;6537824;22;19915;-76
2022/09/02 04:10:49;;;;;;;;;;;;;;;12.36;100.00;101467.47;6537501;22;19914;-76
2022/09/02 04:13:20;;;;;;;;;;;;;;;12.33;100.00;101473.97;6538562;22;19915;-76
2022/09/02 04:15:52;;;;;;;;;;;;;;;12.31;100.00;101473.25;6537490;22;19969;-76
2022/09/02 04:18:23;;;;;;;;;;;;;;;12.29;100.00;101462.69;6538148;22;19935;-76
2022/09/02 04:20:58;;;;;;;;;;;;;;;12.28;100.00;101468.19;6538217;22;19915;-76
2022/09/02 04:23:29;;;;;;;;;;;;;;;12.26;100.00;101462.97;6536867;22;19949;-76
2022/09/02 04:26:08;;;;;;;;;;;;;;;12.26;100.00;101467.47;6534615;22;19907;-76
2022/09/02 04:28:40;;;;;;;;;;;;;;;12.30;100.00;101463.53;6535044;22;19907;-76
2022/09/02 04:31:12;;;;;;;;;;;;;;;12.29;100.00;101461.84;6537727;22;19915;-76
2022/09/02 04:33:44;;;;;;;;;;;;;;;12.31;100.00;101462.56;6536480;22;19998;-76
2022/09/02 04:36:16;;;;;;;;;;;;;;;12.32;100.00;101455.38;6537868;22;20326;-76
2022/09/02 04:38:47;;;;;;;;;;;;;;;12.36;100.00;101452.28;6539630;22;19908;-76
2022/09/02 04:41:21;;;;;;;;;;;;;;;12.41;100.00;101463.44;6540020;22;19914;-75
2022/09/02 04:43:58;;;;;;;;;;;;;;;12.46;100.00;101458.50;6539663;22;19942;-76
2022/09/02 04:46:29;;;;;;;;;;;;;;;12.52;100.00;101450.88;6536989;22;19930;-76
2022/09/02 04:49:00;;;;;;;;;;;;;;;12.58;100.00;101456.50;6536483;22;19907;-76
2022/09/02 04:51:31;;;;;;;;;;;;;;;12.63;100.00;101454.25;6509996;22;19914;-76
2022/09/02 04:54:03;;;;;;;;;;;;;;;12.68;100.00;101457.34;6536577;22;20290;-78
2022/09/02 04:56:34;;;;;;;;;;;;;;;12.76;100.00;101455.81;6510446;22;19950;-77
2022/09/02 04:59:06;;;;;;;;;;;;;;;12.81;100.00;101462.41;6536258;22;19915;-77
2022/09/02 05:01:37;;;;;;;;;;;;;;;12.88;100.00;101460.03;6510780;22;19903;-77
2022/09/02 05:04:08;;;;;;;;;;;;;;;12.94;100.00;101458.59;6537247;22;20392;-77
2022/09/02 05:06:39;;;;;;;;;;;;;;;13.00;100.00;101463.41;6537382;22;19950;-77
2022/09/02 05:09:11;;;;;;;;;;;;;;;13.07;100.00;101452.97;6536457;22;19907;-76
2022/09/02 05:11:42;;;;;;;;;;;;;;;13.15;100.00;101453.94;6536854;22;19954;-75
2022/09/02 05:14:14;;;;;;;;;;;;;;;13.22;100.00;101459.56;6536022;22;20033;-77
2022/09/02 05:16:46;;;;;;;;;;;;;;;13.29;100.00;101452.63;6509560;22;19978;-78
2022/09/02 05:19:17;;;;;;;;;;;;;;;13.35;100.00;101453.91;6538198;22;20416;-78
2022/09/02 05:21:49;;;;;;;;;;;;;;;13.40;100.00;101451.66;6539836;22;19915;-76
2022/09/02 05:24:20;;;;;;;;;;;;;;;13.46;100.00;101453.72;6539218;22;19915;-76
2022/09/02 05:26:52;;;;;;;;;;;;;;;13.57;100.00;101455.41;6539497;22;19908;-76
2022/09/02 05:29:23;;;;;;;;;;;;;;;13.66;100.00;101459.03;6539764;22;19938;-76
2022/09/02 05:31:54;;;;;;;;;;;;;;;13.72;100.00;101455.75;6540338;22;19915;-76
2022/09/02 05:34:25;;;;;;;;;;;;;;;13.76;100.00;101458.00;6539098;22;19911;-76
2022/09/02 05:36:57;;;;;;;;;;;;;;;13.82;100.00;101453.88;6512484;22;20231;-76
2022/09/02 05:39:28;;;;;;;;;;;;;;;13.87;100.00;101454.28;6539250;22;20249;-76
2022/09/02 05:42:00;;;;;;;;;;;;;;;13.94;100.00;101457.19;6539972;22;19946;-75
2022/09/02 05:44:31;;;;;;;;;;;;;;;13.99;100.00;101457.59;6542242;22;19907;-75
2022/09/02 05:47:02;;;;;;;;;;;;;;;14.06;100.00;101457.81;6543625;22;20295;-75
2022/09/02 05:49:33;;;;;;;;;;;;;;;14.11;100.00;101451.03;6540888;22;19981;-76
2022/09/02 05:52:08;;;;;;;;;;;;;;;14.18;100.00;101457.47;6537828;22;19920;-76
2022/09/02 05:54:40;;;;;;;;;;;;;;;14.24;100.00;101457.88;6539095;22;20348;-76
2022/09/02 05:57:12;;;;;;;;;;;;;;;14.30;100.00;101466.13;6539897;22;19939;-76
2022/09/02 05:59:44;;;;;;;;;;;;;;;14.35;100.00;101454.94;6537113;22;19910;-76
2022/09/02 06:02:16;;;;;;;;;;;;;;;14.41;100.00;101458.84;6536358;22;19910;-76
2022/09/02 06:04:48;;;;;;;;;;;;;;;14.46;100.00;101457.44;6507306;22;20460;-76
2022/09/02 06:07:22;;;;;;;;;;;;;;;14.53;100.00;101454.94;6539069;22;20345;-76
2022/09/02 06:09:54;;;;;;;;;;;;;;;14.62;100.00;101453.22;6537969;22;19904;-76
2022/09/02 06:12:26;;;;;;;;;;;;;;;14.68;100.00;101450.78;6538524;22;19907;-76
2022/09/02 06:14:57;;;;;;;;;;;;;;;14.75;100.00;101453.69;6539061;22;19907;-76
2022/09/02 06:17:28;;;;;;;;;;;;;;;14.83;100.00;101453.75;6538732;22;19918;-76
2022/09/02 06:20:00;;;;;;;;;;;;;;;14.91;100.00;101452.97;6538925;22;19915;-76
2022/09/02 06:22:31;;;;;;;;;;;;;;;15.00;100.00;101451.19;6537148;22;19917;-77
2022/09/02 06:25:02;;;;;;;;;;;;;;;15.07;100.00;101447.72;6539188;22;19907;-76
2022/09/02 06:27:36;;;;;;;;;;;;;;;15.18;100.00;101448.44;6537584;22;19911;-76
2022/09/02 06:30:07;;;;;;;;;;;;;;;15.25;100.00;101447.69;6512041;22;19914;-76
2022/09/02 06:32:38;;;;;;;;;;;;;;;15.34;100.00;101447.72;6538181;22;20307;-76
2022/09/02 06:35:10;;;;;;;;;;;;;;;15.42;100.00;101445.91;6538883;22;19904;-76
2022/09/02 06:37:41;;;;;;;;;;;;;;;15.54;100.00;101445.66;6538951;22;19907;-76
2022/09/02 06:40:13;;;;;;;;;;;;;;;15.65;100.00;101451.56;6538966;22;19911;-76
2022/09/02 06:42:44;;;;;;;;;;;;;;;15.75;100.00;101448.81;6538130;22;19950;-76
2022/09/02 06:45:15;;;;;;;;;;;;;;;15.87;100.00;101446.66;6512094;22;20226;-76
2022/09/02 06:47:47;;;;;;;;;;;;;;;16.00;100.00;101444.34;6538388;22;19908;-76
2022/09/02 06:50:18;;;;;;;;;;;;;;;16.10;100.00;101444.22;6538794;22;20233;-76
2022/09/02 06:52:49;;;;;;;;;;;;;;;16.21;100.00;101443.88;6537683;22;19919;-76
2022/09/02 06:55:20;;;;;;;;;;;;;;;16.33;100.00;101441.72;6538869;22;20223;-76
2022/09/02 06:57:52;;;;;;;;;;;;;;;16.45;100.00;101440.41;6538363;22;19988;-75
2022/09/02 07:00:23;;;;;;;;;;;;;;;16.58;100.00;101439.91;6538741;22;19970;-76
2022/09/02 07:05:44;;;;;;;;;;;;;;;16.91;100.00;101436.41;6537246;22;19947;-76
2022/09/02 07:08:16;;;;;;;;;;;;;;;17.06;100.00;101436.56;6538683;22;20357;-77
2022/09/02 07:10:47;;;;;;;;;;;;;;;17.23;100.00;101429.28;6538817;22;19903;-76
2022/09/02 07:13:18;;;;;;;;;;;;;;;17.39;100.00;101440.03;6539640;22;19912;-76
2022/09/02 07:15:49;;;;;;;;;;;;;;;17.55;100.00;101436.47;6539249;22;19907;-77
2022/09/02 07:18:20;;;;;;;;;;;;;;;17.70;100.00;101423.91;6540061;22;19904;-76
2022/09/02 07:20:52;;;;;;;;;;;;;;;17.85;100.00;101429.41;6539736;22;20219;-77
2022/09/02 07:23:23;;;;;;;;;;;;;;;18.01;100.00;101422.28;6512780;22;20287;-76
2022/09/02 07:25:55;;;;;;;;;;;;;;;18.10;100.00;101422.03;6539688;22;19907;-76
2022/09/02 07:28:26;;;;;;;;;;;;;;;18.22;100.00;101427.88;6541079;22;19958;-76
2022/09/02 07:30:57;;;;;;;;;;;;;;;18.39;100.00;101430.47;6513273;22;20000;-76
2022/09/02 07:33:28;;;;;;;;;;;;;;;18.57;100.00;101420.22;6539726;22;19915;-76
2022/09/02 07:35:59;;;;;;;;;;;;;;;18.69;100.00;101424.16;6511911;22;19904;-77
2022/09/02 07:38:31;;;;;;;;;;;;;;;18.81;100.00;101423.72;6540109;22;20011;-76
2022/09/02 07:41:03;;;;;;;;;;;;;;;18.91;100.00;101420.78;6539558;22;19930;-76
2022/09/02 07:43:35;;;;;;;;;;;;;;;18.98;100.00;101427.97;6539540;22;19910;-76
2022/09/02 07:46:07;;;;;;;;;;;;;;;19.00;100.00;101430.50;6540797;22;20334;-77
2022/09/02 07:48:38;;;;;;;;;;;;;;;19.10;100.00;101419.44;6539688;22;19907;-76
2022/09/02 07:51:09;;;;;;;;;;;;;;;19.20;100.00;101420.00;6513096;22;20462;-76
2022/09/02 07:53:42;;;;;;;;;;;;;;;19.27;100.00;101427.19;6512583;22;19911;-76
2022/09/02 07:56:13;;;;;;;;;;;;;;;19.34;100.00;101421.88;6512534;22;19951;-77
2022/09/02 07:58:45;;;;;;;;;;;;;;;19.38;100.00;101420.47;6538970;22;19908;-76
2022/09/02 08:01:16;;;;;;;;;;;;;;;19.49;100.00;101426.44;6539943;22;20595;-76
2022/09/02 08:03:48;;;;;;;;;;;;;;;19.58;100.00;101423.47;6539562;22;19938;-76
2022/09/02 08:06:19;;;;;;;;;;;;;;;19.74;100.00;101422.44;6540634;22;19915;-76
2022/09/02 08:08:50;;;;;;;;;;;;;;;19.77;100.00;101424.75;6540384;22;19958;-76
2022/09/02 08:11:22;;;;;;;;;;;;;;;19.74;100.00;101421.56;6540084;22;19907;-76
2022/09/02 08:13:53;;;;;;;;;;;;;;;19.79;100.00;101414.59;6540864;22;19962;-76
2022/09/02 08:16:25;;;;;;;;;;;;;;;19.88;100.00;101412.63;6514758;22;19908;-76
2022/09/02 08:18:56;;;;;;;;;;;;;;;19.97;100.00;101410.63;6542180;22;19945;-76
2022/09/02 08:21:28;;;;;;;;;;;;;;;20.08;100.00;101414.72;6541310;22;20278;-76
2022/09/02 08:23:59;;;;;;;;;;;;;;;20.15;100.00;101413.75;6540672;22;20229;-76
2022/09/02 08:26:31;;;;;;;;;;;;;;;20.28;100.00;101412.19;6541735;22;20330;-76
2022/09/02 08:29:06;;;;;;;;;;;;;;;20.44;100.00;101409.25;6542390;22;19907;-76
2022/09/02 08:31:37;;;;;;;;;;;;;;;20.54;100.00;101406.19;6541872;22;19975;-76
2022/09/02 08:34:08;;;;;;;;;;;;;;;20.69;100.00;101403.47;6541648;22;20393;-76
2022/09/02 08:36:42;;;;;;;;;;;;;;;20.89;100.00;101404.44;6514963;22;19907;-76
2022/09/02 08:39:13;;;;;;;;;;;;;;;21.03;100.00;101402.66;6539898;22;19908;-76
2022/09/02 08:41:57;;;;;;;;;;;;;;;21.13;100.00;101403.16;6539650;22;19922;-76
2022/09/02 08:44:28;;;;;;;;;;;;;;;21.24;100.00;101398.19;6514670;22;19908;-76
2022/09/02 08:47:01;;;;;;;;;;;;;;;21.39;100.00;101398.94;6541645;22;19911;-76
2022/09/02 08:49:40;;;;;;;;;;;;;;;21.54;100.00;101396.09;6540792;22;19926;-76
2022/09/02 08:52:19;;;;;;;;;;;;;;;21.66;100.00;101396.34;6541533;22;20346;-76
2022/09/02 08:54:54;;;;;;;;;;;;;;;21.88;100.00;101399.78;6541790;22;19957;-76
2022/09/02 08:57:26;;;;;;;;;;;;;;;22.10;100.00;101398.56;6541898;22;19915;-76
2022/09/02 09:00:00;;;;;;;;;;;;;;;22.21;100.00;101408.03;6542359;22;20345;-76
2022/09/02 09:02:55;;;;;;;;;;;;;;;22.20;100.00;101402.78;6541347;22;19903;-76
2022/09/02 09:05:46;;;;;;;;;;;;;;;22.25;100.00;101408.44;6541819;22;19994;-76
2022/09/02 09:08:38;;;;;;;;;;;;;;;22.39;100.00;101404.75;6541618;22;19991;-76
2022/09/02 09:11:14;;;;;;;;;;;;;;;22.58;100.00;101408.53;6508808;22;19915;-76
2022/09/02 09:13:54;;;;;;;;;;;;;;;22.54;100.00;101403.69;6541470;22;19961;-76
2022/09/02 09:16:31;;;;;;;;;;;;;;;22.57;100.00;101408.72;6538804;22;19903;-76
2022/09/02 09:19:13;;;;;;;;;;;;;;;22.70;100.00;101403.28;6512912;22;19930;-76
2022/09/02 09:21:44;;;;;;;;;;;;;;;22.94;100.00;101407.25;6539464;22;19912;-77
2022/09/02 09:24:16;;;;;;;;;;;;;;;23.09;100.00;101398.03;6513436;22;19911;-76
2022/09/02 09:26:47;;;;;;;;;;;;;;;23.29;100.00;101400.72;6537597;22;20345;-76
2022/09/02 09:29:18;;;;;;;;;;;;;;;23.51;100.00;101396.69;6511217;22;20330;-76
2022/09/02 09:31:55;;;;;;;;;;;;;;;23.57;100.00;101400.44;6539353;22;20258;-76
2022/09/02 09:34:55;;;;;;;;;;;;;;;23.82;100.00;101400.56;6540205;22;19914;-76
2022/09/02 09:37:26;;;;;;;;;;;;;;;24.23;100.00;101398.44;6508091;22;19907;-76
2022/09/02 09:39:57;;;;;;;;;;;;;;;24.51;96.98;101400.78;6546120;22;19934;-76
2022/09/02 09:42:30;;;;;;;;;;;;;;;24.76;96.02;101395.34;6555100;22;19919;-75
2022/09/02 09:45:17;;;;;;;;;;;;;;;25.01;93.81;101397.19;6550907;22;20273;-76
2022/09/02 09:48:30;;;;;;;;;;;;;;;25.38;89.47;101386.34;6541270;22;19908;-76
2022/09/02 09:51:01;;;;;;;;;;;;;;;25.71;84.58;101385.09;6453006;22;19910;-76
2022/09/02 09:53:33;;;;;;;;;;;;;;;26.12;84.52;101380.75;6514431;22;20327;-76
2022/09/02 09:56:26;;;;;;;;;;;;;;;26.69;78.71;101381.13;6542020;22;19910;-76
2022/09/02 09:58:57;;;;;;;;;;;;;;;27.24;71.21;101385.38;6540420;22;19907;-76
2022/09/02 10:01:30;;;;;;;;;;;;;;;27.61;68.43;101384.25;6541600;22;19966;-77
2022/09/02 10:04:12;;;;;;;;;;;;;;;28.32;67.77;101376.56;6541828;22;20030;-76
2022/09/02 10:06:43;;;;;;;;;;;;;;;29.54;59.05;101373.97;6541105;22;20242;-77
2022/09/02 10:09:18;;;;;;;;;;;;;;;30.84;53.30;101374.91;6541327;22;19907;-76
2022/09/02 10:11:56;;;;;;;;;;;;;;;32.71;48.73;101369.66;6541827;22;19907;-76
2022/09/02 10:14:40;;;;;;;;;;;;;;;35.28;41.45;101376.28;6541308;22;19934;-76
2022/09/02 10:17:21;;;;;;;;;;;;;;;36.44;33.39;101368.47;6541564;22;19903;-76
2022/09/02 10:19:58;;;;;;;;;;;;;;;37.64;31.99;101369.41;6541334;22;19911;-76
2022/09/02 10:22:32;;;;;;;;;;;;;;;38.32;28.64;101370.28;6540782;22;19904;-76
2022/09/02 10:25:24;;;;;;;;;;;;;;;39.36;28.30;101357.13;6540958;22;19907;-77
2022/09/02 10:28:11;;;;;;;;;;;;;;;40.52;25.21;101352.81;6540438;22;20203;-77
2022/09/02 10:30:55;;;;;;;;;;;;;;;41.17;24.55;101359.13;6540062;22;20326;-77
2022/09/02 10:33:46;;;;;;;;;;;;;;;41.35;23.32;101357.88;6513792;22;19908;-77
2022/09/02 10:36:17;;;;;;;;;;;;;;;41.62;23.25;101358.47;6541003;22;19942;-77
2022/09/02 10:38:49;;;;;;;;;;;;;;;42.22;22.03;101349.88;6514628;22;19920;-77
2022/09/02 10:41:32;;;;;;;;;;;;;;;42.83;21.54;101350.00;6513922;22;20027;-77
2022/09/02 10:44:06;;;;;;;;;;;;;;;43.72;21.81;101348.31;6540588;22;19993;-77
2022/09/02 10:47:01;;;;;;;;;;;;;;;43.57;20.18;101352.72;6541550;22;20644;-77
2022/09/02 10:49:44;;;;;;;;;;;;;;;43.89;19.44;101347.25;6541351;22;19907;-77
2022/09/02 10:52:23;;;;;;;;;;;;;;;44.50;19.89;101337.63;6541845;22;19912;-77
2022/09/02 10:55:13;;;;;;;;;;;;;;;43.68;18.83;101339.00;6541947;22;20227;-77
2022/09/02 10:57:46;;;;;;;;;;;;;;;42.53;18.43;101331.75;6541644;22;19908;-77
2022/09/02 11:00:19;;;;;;;;;;;;;;;42.72;19.05;101334.81;6542656;22;20026;-77
2022/09/02 11:02:53;;;;;;;;;;;;;;;43.09;19.13;101319.97;6542205;22;19907;-77
2022/09/02 11:05:28;;;;;;;;;;;;;;;42.18;18.81;101318.13;6542929;22;19911;-77
2022/09/02 11:08:02;;;;;;;;;;;;;;;43.56;18.83;101310.97;6542141;22;19922;-77
2022/09/02 11:10:35;;;;;;;;;;;;;;;43.97;18.30;101312.56;6515562;22;20348;-78
2022/09/02 11:13:30;;;;;;;;;;;;;;;43.10;18.21;101294.34;6514059;22;19939;-77
2022/09/02 11:16:05;;;;;;;;;;;;;;;43.60;17.42;101300.66;6539449;22;19903;-77
2022/09/02 11:18:38;;;;;;;;;;;;;;;43.95;17.71;101309.25;6513594;22;19908;-77
2022/09/02 11:21:21;;;;;;;;;;;;;;;44.43;16.96;101300.91;6540241;22;19903;-77
2022/09/02 11:23:56;;;;;;;;;;;;;;;44.74;17.34;101290.81;6539726;22;20327;-77
2022/09/02 11:26:32;;;;;;;;;;;;;;;45.49;16.32;101286.06;6539675;22;19907;-77
2022/09/02 11:29:09;;;;;;;;;;;;;;;46.23;15.92;101287.88;6539022;22;20665;-77
2022/09/02 11:31:47;;;;;;;;;;;;;;;46.25;15.18;101287.50;6538847;22;20403;-77
2022/09/02 11:34:36;;;;;;;;;;;;;;;46.52;14.95;101277.09;6540719;22;19947;-77
2022/09/02 11:37:09;;;;;;;;;;;;;;;46.12;15.19;101275.63;6540392;22;19969;-77
2022/09/02 11:39:50;;;;;;;;;;;;;;;46.58;14.77;101275.56;6542404;22;20269;-77
2022/09/02 11:42:30;;;;;;;;;;;;;;;46.57;14.03;101280.41;6542255;22;19935;-77
2022/09/02 11:45:10;;;;;;;;;;;;;;;46.27;14.51;101274.66;6542241;22;19903;-77
2022/09/02 11:47:53;;;;;;;;;;;;;;;47.72;14.41;101273.44;6542187;22;20231;-77
2022/09/02 11:50:40;;;;;;;;;;;;;;;46.48;14.16;101268.59;6541527;22;19935;-77
2022/09/02 11:53:19;;;;;;;;;;;;;;;45.61;15.05;101256.94;6542033;22;19912;-77
2022/09/02 11:55:55;;;;;;;;;;;;;;;45.48;13.95;101261.91;6515095;22;19903;-77
2022/09/02 11:58:29;;;;;;;;;;;;;;;46.54;14.38;101261.41;6541827;22;19931;-77
2022/09/02 12:01:03;;;;;;;;;;;;;;;46.17;14.51;101249.94;6542093;22;19911;-77
2022/09/02 12:03:34;;;;;;;;;;;;;;;43.98;15.59;101252.38;6515155;22;19907;-77
2022/09/02 12:06:07;;;;;;;;;;;;;;;42.39;15.74;101242.38;6514901;22;20377;-77
2022/09/02 12:08:40;;;;;;;;;;;;;;;40.75;17.62;101255.56;6515361;22;19934;-77
2022/09/02 12:11:30;;;;;;;;;;;;;;;39.82;17.98;101247.66;6542235;22;19903;-77
2022/09/02 12:14:01;;;;;;;;;;;;;;;38.53;19.00;101241.59;6541544;22;19958;-77
2022/09/02 12:16:32;;;;;;;;;;;;;;;40.04;18.48;101240.22;6542397;22;19903;-77
2022/09/02 12:19:07;;;;;;;;;;;;;;;42.61;17.56;101227.09;6542264;22;20253;-77
2022/09/02 12:21:58;;;;;;;;;;;;;;;43.22;15.43;101238.19;6515001;22;20207;-77
2022/09/02 12:24:46;;;;;;;;;;;;;;;42.28;16.06;101228.03;6541398;22;19904;-77
2022/09/02 12:27:23;;;;;;;;;;;;;;;42.53;15.64;101234.44;6515263;22;19904;-77
2022/09/02 12:29:55;;;;;;;;;;;;;;;43.50;15.22;101228.16;6541567;22;19940;-77
2022/09/02 12:32:44;;;;;;;;;;;;;;;42.81;15.76;101231.72;6541678;22;19904;-77
2022/09/02 12:35:30;;;;;;;;;;;;;;;42.43;15.88;101220.88;6542054;22;19962;-77
2022/09/02 12:38:10;;;;;;;;;;;;;;;42.57;15.75;101217.75;6541937;22;19908;-77
2022/09/02 12:41:11;;;;;;;;;;;;;;;42.58;15.28;101222.19;6541851;22;20467;-77
2022/09/02 12:43:52;;;;;;;;;;;;;;;42.98;15.21;101213.03;6537373;22;19910;-77
2022/09/02 12:46:42;;;;;;;;;;;;;;;43.33;15.31;101213.28;6541684;22;19910;-77
2022/09/02 12:49:25;;;;;;;;;;;;;;;42.44;15.02;101209.31;6514712;22;19911;-77
2022/09/02 12:52:00;;;;;;;;;;;;;;;41.79;15.82;101208.34;6541434;22;19972;-77
2022/09/02 12:54:37;;;;;;;;;;;;;;;42.75;15.53;101202.31;6541688;22;19962;-77
2022/09/02 12:57:09;;;;;;;;;;;;;;;42.62;15.29;101200.69;6541584;22;19954;-77
2022/09/02 12:59:40;;;;;;;;;;;;;;;42.28;15.50;101203.59;6541678;22;19981;-77
2022/09/02 13:02:11;;;;;;;;;;;;;;;43.10;15.26;101198.97;6542170;22;19923;-77
2022/09/02 13:04:50;;;;;;;;;;;;;;;42.81;14.67;101188.84;6541355;22;19914;-77
2022/09/02 13:07:40;;;;;;;;;;;;;;;42.68;14.79;101188.06;6541851;22;19910;-77
2022/09/02 13:10:29;;;;;;;;;;;;;;;42.03;15.40;101191.56;6541120;22;19953;-77